sensor_id;sensor_type;location;lat;lon;timestamp;temperature;humidity
32476;DHT22;18929;48.008;10.882;2023-09-19T00:01:19;18.70;99.90
32476;DHT22;18929;48.008;10.882;2023-09-19T00:03:49;18.10;99.90
32476;DHT22;18929;48.008;10.882;2023-09-19T00:06:16;18.30;99.90
32476;DHT22;18929;48.008;10.882;2023-09-19T00:08:43;18.60;99.90
32476;DHT22;18929;48.008;10.882;2023-09-19T00:11:10;18.70;99.90
32476;DHT22;18929;48.008;10.882;2023-09-19T00:13:37;18.50;99.90
32476;DHT22;18929;48.008;10.882;2023-09-19T00:16:08;18.60;99.90
32476;DHT22;18929;48.008;10.882;2023-09-19T00:18:36;18.50;99.90
32476;DHT22;18929;48.008;10.882;2023-09-19T00:21:04;18.60;99.90
32476;DHT22;18929;48.008;10.882;2023-09-19T00:23:31;18.60;99.90
32476;DHT22;18929;48.008;10.882;2023-09-19T00:25:58;18.70;99.90
32476;DHT22;18929;48.008;10.882;2023-09-19T00:28:27;18.90;99.90
32476;DHT22;18929;48.008;10.882;2023-09-19T00:30:57;18.90;99.90
32476;DHT22;18929;48.008;10.882;2023-09-19T00:33:26;18.90;99.90
32476;DHT22;18929;48.008;10.882;2023-09-19T00:35:55;18.40;99.90
32476;DHT22;18929;48.008;10.882;2023-09-19T00:38:24;18.50;99.90
32476;DHT22;18929;48.008;10.882;2023-09-19T00:40:52;18.60;99.90
32476;DHT22;18929;48.008;10.882;2023-09-19T00:43:19;18.60;99.90
32476;DHT22;18929;48.008;10.882;2023-09-19T00:45:47;18.50;99.90
32476;DHT22;18929;48.008;10.882;2023-09-19T00:48:14;18.40;99.90
32476;DHT22;18929;48.008;10.882;2023-09-19T00:50:42;18.40;99.90
32476;DHT22;18929;48.008;10.882;2023-09-19T00:53:09;18.30;99.90
32476;DHT22;18929;48.008;10.882;2023-09-19T00:55:40;18.30;99.90
32476;DHT22;18929;48.008;10.882;2023-09-19T00:58:09;18.20;99.90
32476;DHT22;18929;48.008;10.882;2023-09-19T01:00:36;18.20;99.90
32476;DHT22;18929;48.008;10.882;2023-09-19T01:03:05;18.20;99.90
32476;DHT22;18929;48.008;10.882;2023-09-19T01:05:33;18.20;99.90
32476;DHT22;18929;48.008;10.882;2023-09-19T01:08:00;18.20;99.90
32476;DHT22;18929;48.008;10.882;2023-09-19T01:10:26;18.40;99.90
32476;DHT22;18929;48.008;10.882;2023-09-19T01:12:58;18.40;99.90
32476;DHT22;18929;48.008;10.882;2023-09-19T01:15:29;18.50;99.90
32476;DHT22;18929;48.008;10.882;2023-09-19T01:18:00;18.50;99.90
32476;DHT22;18929;48.008;10.882;2023-09-19T01:20:32;18.10;99.90
32476;DHT22;18929;48.008;10.882;2023-09-19T01:23:05;18.20;99.90
32476;DHT22;18929;48.008;10.882;2023-09-19T01:25:38;18.30;99.90
32476;DHT22;18929;48.008;10.882;2023-09-19T01:28:24;18.30;99.90
32476;DHT22;18929;48.008;10.882;2023-09-19T01:30:56;18.10;99.90
32476;DHT22;18929;48.008;10.882;2023-09-19T01:33:23;18.00;99.90
32476;DHT22;18929;48.008;10.882;2023-09-19T01:35:51;17.90;99.90
32476;DHT22;18929;48.008;10.882;2023-09-19T01:38:23;18.00;99.90
32476;DHT22;18929;48.008;10.882;2023-09-19T01:40:51;18.20;99.90
32476;DHT22;18929;48.008;10.882;2023-09-19T01:43:23;18.20;99.90
32476;DHT22;18929;48.008;10.882;2023-09-19T01:45:55;18.30;99.90
32476;DHT22;18929;48.008;10.882;2023-09-19T01:48:25;18.20;99.90
32476;DHT22;18929;48.008;10.882;2023-09-19T01:50:56;18.30;99.90
32476;DHT22;18929;48.008;10.882;2023-09-19T01:53:26;18.30;99.90
32476;DHT22;18929;48.008;10.882;2023-09-19T01:55:54;18.00;99.90
32476;DHT22;18929;48.008;10.882;2023-09-19T01:58:21;18.00;99.90
32476;DHT22;18929;48.008;10.882;2023-09-19T02:00:52;17.90;99.90
32476;DHT22;18929;48.008;10.882;2023-09-19T02:03:21;18.10;99.90
32476;DHT22;18929;48.008;10.882;2023-09-19T02:05:50;18.00;99.90
32476;DHT22;18929;48.008;10.882;2023-09-19T02:08:19;18.10;99.90
32476;DHT22;18929;48.008;10.882;2023-09-19T02:10:46;18.10;99.90
32476;DHT22;18929;48.008;10.882;2023-09-19T02:13:21;18.20;99.90
32476;DHT22;18929;48.008;10.882;2023-09-19T02:15:50;17.90;99.90
32476;DHT22;18929;48.008;10.882;2023-09-19T02:18:17;17.80;99.90
32476;DHT22;18929;48.008;10.882;2023-09-19T02:20:44;18.10;99.90
32476;DHT22;18929;48.008;10.882;2023-09-19T02:23:12;17.90;99.90
32476;DHT22;18929;48.008;10.882;2023-09-19T02:25:41;18.00;99.90
32476;DHT22;18929;48.008;10.882;2023-09-19T02:28:09;18.10;99.90
32476;DHT22;18929;48.008;10.882;2023-09-19T02:30:37;17.90;99.90
32476;DHT22;18929;48.008;10.882;2023-09-19T02:33:04;18.10;99.90
32476;DHT22;18929;48.008;10.882;2023-09-19T02:35:31;18.20;99.90
32476;DHT22;18929;48.008;10.882;2023-09-19T02:38:00;18.40;99.90
32476;DHT22;18929;48.008;10.882;2023-09-19T02:40:30;18.40;99.90
32476;DHT22;18929;48.008;10.882;2023-09-19T02:42:57;18.50;99.90
32476;DHT22;18929;48.008;10.882;2023-09-19T02:45:24;18.50;99.90
32476;DHT22;18929;48.008;10.882;2023-09-19T02:47:51;18.30;99.90
32476;DHT22;18929;48.008;10.882;2023-09-19T02:50:18;18.00;99.90
32476;DHT22;18929;48.008;10.882;2023-09-19T02:52:46;18.10;99.90
32476;DHT22;18929;48.008;10.882;2023-09-19T02:55:14;18.20;99.90
32476;DHT22;18929;48.008;10.882;2023-09-19T02:57:46;18.20;99.90
32476;DHT22;18929;48.008;10.882;2023-09-19T03:00:13;18.00;99.90
32476;DHT22;18929;48.008;10.882;2023-09-19T03:02:41;18.10;99.90
32476;DHT22;18929;48.008;10.882;2023-09-19T03:05:10;18.00;99.90
32476;DHT22;18929;48.008;10.882;2023-09-19T03:07:38;18.10;99.90
32476;DHT22;18929;48.008;10.882;2023-09-19T03:10:05;18.10;99.90
32476;DHT22;18929;48.008;10.882;2023-09-19T03:12:33;18.10;99.90
32476;DHT22;18929;48.008;10.882;2023-09-19T03:15:02;18.00;99.90
32476;DHT22;18929;48.008;10.882;2023-09-19T03:17:29;18.00;99.90
32476;DHT22;18929;48.008;10.882;2023-09-19T03:19:58;18.00;99.90
32476;DHT22;18929;48.008;10.882;2023-09-19T03:22:25;18.10;99.90
32476;DHT22;18929;48.008;10.882;2023-09-19T03:24:52;18.10;99.90
32476;DHT22;18929;48.008;10.882;2023-09-19T03:27:19;18.00;99.90
32476;DHT22;18929;48.008;10.882;2023-09-19T03:29:46;18.30;99.90
32476;DHT22;18929;48.008;10.882;2023-09-19T03:32:27;18.00;99.90
32476;DHT22;18929;48.008;10.882;2023-09-19T03:34:54;18.00;99.90
32476;DHT22;18929;48.008;10.882;2023-09-19T03:37:21;18.10;99.90
32476;DHT22;18929;48.008;10.882;2023-09-19T03:39:48;18.10;99.90
32476;DHT22;18929;48.008;10.882;2023-09-19T03:42:15;18.10;99.90
32476;DHT22;18929;48.008;10.882;2023-09-19T03:44:42;18.00;99.90
32476;DHT22;18929;48.008;10.882;2023-09-19T03:47:09;18.00;99.90
32476;DHT22;18929;48.008;10.882;2023-09-19T03:49:38;18.10;99.90
32476;DHT22;18929;48.008;10.882;2023-09-19T03:52:05;17.90;99.90
32476;DHT22;18929;48.008;10.882;2023-09-19T03:54:32;17.80;99.90
32476;DHT22;18929;48.008;10.882;2023-09-19T03:57:02;17.80;99.90
32476;DHT22;18929;48.008;10.882;2023-09-19T03:59:30;17.70;99.90
32476;DHT22;18929;48.008;10.882;2023-09-19T04:01:57;17.70;99.90
32476;DHT22;18929;48.008;10.882;2023-09-19T04:04:24;17.80;99.90
32476;DHT22;18929;48.008;10.882;2023-09-19T04:06:53;17.80;99.90
32476;DHT22;18929;48.008;10.882;2023-09-19T04:09:22;17.80;99.90
32476;DHT22;18929;48.008;10.882;2023-09-19T04:11:52;17.90;99.90
32476;DHT22;18929;48.008;10.882;2023-09-19T04:14:18;18.00;99.90
32476;DHT22;18929;48.008;10.882;2023-09-19T04:16:45;17.80;99.90
32476;DHT22;18929;48.008;10.882;2023-09-19T04:19:12;17.60;99.90
32476;DHT22;18929;48.008;10.882;2023-09-19T04:21:40;17.50;99.90
32476;DHT22;18929;48.008;10.882;2023-09-19T04:24:11;17.50;99.90
32476;DHT22;18929;48.008;10.882;2023-09-19T04:26:39;17.50;99.90
32476;DHT22;18929;48.008;10.882;2023-09-19T04:29:05;17.30;99.90
32476;DHT22;18929;48.008;10.882;2023-09-19T04:31:32;17.50;99.90
32476;DHT22;18929;48.008;10.882;2023-09-19T04:33:59;17.60;99.90
32476;DHT22;18929;48.008;10.882;2023-09-19T04:36:29;17.40;99.90
32476;DHT22;18929;48.008;10.882;2023-09-19T04:38:55;17.30;99.90
32476;DHT22;18929;48.008;10.882;2023-09-19T04:41:30;17.30;99.90
32476;DHT22;18929;48.008;10.882;2023-09-19T04:43:57;17.30;99.90
32476;DHT22;18929;48.008;10.882;2023-09-19T04:46:24;17.50;99.90
32476;DHT22;18929;48.008;10.882;2023-09-19T04:48:51;17.50;99.90
32476;DHT22;18929;48.008;10.882;2023-09-19T04:51:18;17.60;99.90
32476;DHT22;18929;48.008;10.882;2023-09-19T04:53:46;17.40;99.90
32476;DHT22;18929;48.008;10.882;2023-09-19T04:56:13;17.30;99.90
32476;DHT22;18929;48.008;10.882;2023-09-19T04:58:42;17.40;99.90
32476;DHT22;18929;48.008;10.882;2023-09-19T05:03:48;17.20;99.90
32476;DHT22;18929;48.008;10.882;2023-09-19T05:06:17;17.30;99.90
32476;DHT22;18929;48.008;10.882;2023-09-19T05:08:46;17.30;99.90
32476;DHT22;18929;48.008;10.882;2023-09-19T05:11:17;17.40;99.90
32476;DHT22;18929;48.008;10.882;2023-09-19T05:13:45;17.50;99.90
32476;DHT22;18929;48.008;10.882;2023-09-19T05:16:12;17.70;99.90
32476;DHT22;18929;48.008;10.882;2023-09-19T05:18:48;17.60;99.90
32476;DHT22;18929;48.008;10.882;2023-09-19T05:21:15;17.60;99.90
32476;DHT22;18929;48.008;10.882;2023-09-19T05:23:42;17.50;99.90
32476;DHT22;18929;48.008;10.882;2023-09-19T05:26:10;17.40;99.90
32476;DHT22;18929;48.008;10.882;2023-09-19T05:28:38;17.40;99.90
32476;DHT22;18929;48.008;10.882;2023-09-19T05:31:06;17.60;99.90
32476;DHT22;18929;48.008;10.882;2023-09-19T05:33:33;17.50;99.90
32476;DHT22;18929;48.008;10.882;2023-09-19T05:35:59;17.60;99.90
32476;DHT22;18929;48.008;10.882;2023-09-19T05:38:26;17.50;99.90
32476;DHT22;18929;48.008;10.882;2023-09-19T05:40:53;17.50;99.90
32476;DHT22;18929;48.008;10.882;2023-09-19T05:43:20;17.50;99.90
32476;DHT22;18929;48.008;10.882;2023-09-19T05:45:56;17.40;99.90
32476;DHT22;18929;48.008;10.882;2023-09-19T05:48:24;17.50;99.90
32476;DHT22;18929;48.008;10.882;2023-09-19T05:50:51;17.50;99.90
32476;DHT22;18929;48.008;10.882;2023-09-19T05:53:18;17.50;99.90
32476;DHT22;18929;48.008;10.882;2023-09-19T05:55:45;17.60;99.90
32476;DHT22;18929;48.008;10.882;2023-09-19T05:58:12;17.50;99.90
32476;DHT22;18929;48.008;10.882;2023-09-19T06:00:40;17.50;99.90
32476;DHT22;18929;48.008;10.882;2023-09-19T06:03:11;17.50;99.90
32476;DHT22;18929;48.008;10.882;2023-09-19T06:05:40;17.50;99.90
32476;DHT22;18929;48.008;10.882;2023-09-19T06:08:07;17.70;99.90
32476;DHT22;18929;48.008;10.882;2023-09-19T06:10:34;17.60;99.90
32476;DHT22;18929;48.008;10.882;2023-09-19T06:13:03;17.60;99.90
32476;DHT22;18929;48.008;10.882;2023-09-19T06:15:31;17.60;99.90
32476;DHT22;18929;48.008;10.882;2023-09-19T06:17:59;17.60;99.90
32476;DHT22;18929;48.008;10.882;2023-09-19T06:20:27;17.60;99.90
32476;DHT22;18929;48.008;10.882;2023-09-19T06:22:56;17.50;99.90
32476;DHT22;18929;48.008;10.882;2023-09-19T06:25:23;17.40;99.90
32476;DHT22;18929;48.008;10.882;2023-09-19T06:27:51;17.60;99.90
32476;DHT22;18929;48.008;10.882;2023-09-19T06:30:19;17.50;99.90
32476;DHT22;18929;48.008;10.882;2023-09-19T06:32:46;17.50;99.90
32476;DHT22;18929;48.008;10.882;2023-09-19T06:35:14;17.40;99.90
32476;DHT22;18929;48.008;10.882;2023-09-19T06:37:41;17.30;99.90
32476;DHT22;18929;48.008;10.882;2023-09-19T06:40:10;17.50;99.90
32476;DHT22;18929;48.008;10.882;2023-09-19T06:42:40;17.40;99.90
32476;DHT22;18929;48.008;10.882;2023-09-19T06:45:07;17.10;99.90
32476;DHT22;18929;48.008;10.882;2023-09-19T06:47:36;17.20;99.90
32476;DHT22;18929;48.008;10.882;2023-09-19T06:50:03;17.30;99.90
32476;DHT22;18929;48.008;10.882;2023-09-19T06:52:31;17.20;99.90
32476;DHT22;18929;48.008;10.882;2023-09-19T06:54:58;17.20;99.90
32476;DHT22;18929;48.008;10.882;2023-09-19T06:57:27;17.20;99.90
32476;DHT22;18929;48.008;10.882;2023-09-19T06:59:54;17.40;99.90
32476;DHT22;18929;48.008;10.882;2023-09-19T07:02:21;17.60;99.90
32476;DHT22;18929;48.008;10.882;2023-09-19T07:04:47;17.60;99.90
32476;DHT22;18929;48.008;10.882;2023-09-19T07:07:15;17.60;99.90
32476;DHT22;18929;48.008;10.882;2023-09-19T07:09:41;17.60;99.90
32476;DHT22;18929;48.008;10.882;2023-09-19T07:12:08;17.80;99.90
32476;DHT22;18929;48.008;10.882;2023-09-19T07:14:37;17.70;99.90
32476;DHT22;18929;48.008;10.882;2023-09-19T07:17:03;17.80;99.90
32476;DHT22;18929;48.008;10.882;2023-09-19T07:19:30;17.90;99.90
32476;DHT22;18929;48.008;10.882;2023-09-19T07:21:57;17.70;99.90
32476;DHT22;18929;48.008;10.882;2023-09-19T07:24:28;17.80;99.90
32476;DHT22;18929;48.008;10.882;2023-09-19T07:26:55;17.80;99.90
32476;DHT22;18929;48.008;10.882;2023-09-19T07:29:22;17.70;99.90
32476;DHT22;18929;48.008;10.882;2023-09-19T07:31:50;17.50;99.90
32476;DHT22;18929;48.008;10.882;2023-09-19T07:34:17;17.70;99.90
32476;DHT22;18929;48.008;10.882;2023-09-19T07:36:45;17.60;99.90
32476;DHT22;18929;48.008;10.882;2023-09-19T07:39:12;17.70;99.90
32476;DHT22;18929;48.008;10.882;2023-09-19T07:41:39;17.70;99.90
32476;DHT22;18929;48.008;10.882;2023-09-19T07:44:07;17.40;99.90
32476;DHT22;18929;48.008;10.882;2023-09-19T07:46:34;17.80;99.90
32476;DHT22;18929;48.008;10.882;2023-09-19T07:49:02;18.00;99.90
32476;DHT22;18929;48.008;10.882;2023-09-19T07:51:30;17.60;99.90
32476;DHT22;18929;48.008;10.882;2023-09-19T07:53:58;17.80;99.90
32476;DHT22;18929;48.008;10.882;2023-09-19T07:56:25;18.10;99.90
32476;DHT22;18929;48.008;10.882;2023-09-19T07:58:53;17.80;99.90
32476;DHT22;18929;48.008;10.882;2023-09-19T08:01:20;18.10;99.90
32476;DHT22;18929;48.008;10.882;2023-09-19T08:03:49;17.80;99.90
32476;DHT22;18929;48.008;10.882;2023-09-19T08:06:17;18.00;99.90
32476;DHT22;18929;48.008;10.882;2023-09-19T08:08:44;18.20;99.90
32476;DHT22;18929;48.008;10.882;2023-09-19T08:11:11;18.10;99.90
32476;DHT22;18929;48.008;10.882;2023-09-19T08:13:38;17.90;99.90
32476;DHT22;18929;48.008;10.882;2023-09-19T08:16:08;17.80;99.90
32476;DHT22;18929;48.008;10.882;2023-09-19T08:21:26;18.10;99.90
32476;DHT22;18929;48.008;10.882;2023-09-19T08:23:55;17.60;99.90
32476;DHT22;18929;48.008;10.882;2023-09-19T08:26:22;17.70;99.90
32476;DHT22;18929;48.008;10.882;2023-09-19T08:28:50;17.70;99.90
32476;DHT22;18929;48.008;10.882;2023-09-19T08:31:18;17.70;99.90
32476;DHT22;18929;48.008;10.882;2023-09-19T08:33:46;17.80;99.90
32476;DHT22;18929;48.008;10.882;2023-09-19T08:36:16;17.80;99.90
32476;DHT22;18929;48.008;10.882;2023-09-19T08:38:45;17.70;99.90
32476;DHT22;18929;48.008;10.882;2023-09-19T08:41:12;17.90;99.90
32476;DHT22;18929;48.008;10.882;2023-09-19T08:43:39;18.20;99.90
32476;DHT22;18929;48.008;10.882;2023-09-19T08:46:08;18.20;99.90
32476;DHT22;18929;48.008;10.882;2023-09-19T08:48:36;18.20;99.90
32476;DHT22;18929;48.008;10.882;2023-09-19T08:51:06;18.50;99.90
32476;DHT22;18929;48.008;10.882;2023-09-19T08:53:35;18.40;99.90
32476;DHT22;18929;48.008;10.882;2023-09-19T08:56:08;18.20;99.90
32476;DHT22;18929;48.008;10.882;2023-09-19T08:58:38;18.10;99.90
32476;DHT22;18929;48.008;10.882;2023-09-19T09:01:06;18.50;99.90
32476;DHT22;18929;48.008;10.882;2023-09-19T09:03:34;18.50;99.90
32476;DHT22;18929;48.008;10.882;2023-09-19T09:06:01;18.50;99.90
32476;DHT22;18929;48.008;10.882;2023-09-19T09:08:29;18.50;99.90
32476;DHT22;18929;48.008;10.882;2023-09-19T09:10:57;18.60;99.90
32476;DHT22;18929;48.008;10.882;2023-09-19T09:13:26;18.50;99.90
32476;DHT22;18929;48.008;10.882;2023-09-19T09:15:54;18.30;99.90
32476;DHT22;18929;48.008;10.882;2023-09-19T09:18:21;18.70;99.90
32476;DHT22;18929;48.008;10.882;2023-09-19T09:20:48;18.50;99.90
32476;DHT22;18929;48.008;10.882;2023-09-19T09:23:15;18.40;99.90
32476;DHT22;18929;48.008;10.882;2023-09-19T09:25:49;18.30;99.90
32476;DHT22;18929;48.008;10.882;2023-09-19T09:28:20;18.40;99.90
32476;DHT22;18929;48.008;10.882;2023-09-19T09:30:49;18.30;99.90
32476;DHT22;18929;48.008;10.882;2023-09-19T09:33:16;18.40;99.90
32476;DHT22;18929;48.008;10.882;2023-09-19T09:35:47;18.70;99.90
32476;DHT22;18929;48.008;10.882;2023-09-19T09:38:17;18.60;99.90
32476;DHT22;18929;48.008;10.882;2023-09-19T09:40:48;18.30;99.90
32476;DHT22;18929;48.008;10.882;2023-09-19T09:43:26;18.30;99.90
32476;DHT22;18929;48.008;10.882;2023-09-19T09:49:02;18.70;99.90
32476;DHT22;18929;48.008;10.882;2023-09-19T09:51:45;18.70;99.90
32476;DHT22;18929;48.008;10.882;2023-09-19T09:54:14;18.80;99.90
32476;DHT22;18929;48.008;10.882;2023-09-19T09:56:51;18.90;99.90
32476;DHT22;18929;48.008;10.882;2023-09-19T09:59:18;18.50;99.90
32476;DHT22;18929;48.008;10.882;2023-09-19T10:01:49;18.60;99.90
32476;DHT22;18929;48.008;10.882;2023-09-19T10:04:28;18.90;99.90
32476;DHT22;18929;48.008;10.882;2023-09-19T10:06:57;18.60;99.90
32476;DHT22;18929;48.008;10.882;2023-09-19T10:09:30;18.50;99.90
32476;DHT22;18929;48.008;10.882;2023-09-19T10:12:03;18.40;99.90
32476;DHT22;18929;48.008;10.882;2023-09-19T10:14:42;18.70;99.90
32476;DHT22;18929;48.008;10.882;2023-09-19T10:17:10;19.10;99.90
32476;DHT22;18929;48.008;10.882;2023-09-19T10:19:46;19.20;99.90
32476;DHT22;18929;48.008;10.882;2023-09-19T10:22:14;19.10;99.90
32476;DHT22;18929;48.008;10.882;2023-09-19T10:24:42;18.90;99.90
32476;DHT22;18929;48.008;10.882;2023-09-19T10:27:12;18.90;99.90
32476;DHT22;18929;48.008;10.882;2023-09-19T10:29:42;19.10;99.90
32476;DHT22;18929;48.008;10.882;2023-09-19T10:32:12;19.40;99.90
32476;DHT22;18929;48.008;10.882;2023-09-19T10:34:45;19.40;99.90
32476;DHT22;18929;48.008;10.882;2023-09-19T10:37:13;18.80;99.90
32476;DHT22;18929;48.008;10.882;2023-09-19T10:39:40;19.10;99.90
32476;DHT22;18929;48.008;10.882;2023-09-19T10:42:07;19.20;99.90
32476;DHT22;18929;48.008;10.882;2023-09-19T10:44:38;19.30;99.90
32476;DHT22;18929;48.008;10.882;2023-09-19T10:47:08;19.30;99.90
32476;DHT22;18929;48.008;10.882;2023-09-19T10:49:42;19.00;99.90
32476;DHT22;18929;48.008;10.882;2023-09-19T10:52:13;19.40;99.90
32476;DHT22;18929;48.008;10.882;2023-09-19T10:54:45;19.30;99.90
32476;DHT22;18929;48.008;10.882;2023-09-19T10:57:18;19.40;99.90
32476;DHT22;18929;48.008;10.882;2023-09-19T11:00:00;19.70;99.90
32476;DHT22;18929;48.008;10.882;2023-09-19T11:05:34;19.30;99.90
32476;DHT22;18929;48.008;10.882;2023-09-19T11:08:07;19.30;99.90
32476;DHT22;18929;48.008;10.882;2023-09-19T11:10:45;19.20;99.90
32476;DHT22;18929;48.008;10.882;2023-09-19T11:13:25;19.30;99.90
32476;DHT22;18929;48.008;10.882;2023-09-19T11:16:03;19.60;99.90
32476;DHT22;18929;48.008;10.882;2023-09-19T11:26:57;19.20;99.90
32476;DHT22;18929;48.008;10.882;2023-09-19T11:32:07;19.30;99.90
32476;DHT22;18929;48.008;10.882;2023-09-19T11:34:39;19.40;99.90
32476;DHT22;18929;48.008;10.882;2023-09-19T11:39:51;19.60;99.90
32476;DHT22;18929;48.008;10.882;2023-09-19T11:42:42;19.80;99.90
32476;DHT22;18929;48.008;10.882;2023-09-19T11:47:55;19.60;99.90
32476;DHT22;18929;48.008;10.882;2023-09-19T11:50:23;19.80;99.90
32476;DHT22;18929;48.008;10.882;2023-09-19T11:52:51;20.30;99.90
32476;DHT22;18929;48.008;10.882;2023-09-19T11:55:18;20.10;99.90
32476;DHT22;18929;48.008;10.882;2023-09-19T11:57:48;20.00;99.90
32476;DHT22;18929;48.008;10.882;2023-09-19T12:00:20;20.20;99.90
32476;DHT22;18929;48.008;10.882;2023-09-19T12:02:47;20.50;99.90
32476;DHT22;18929;48.008;10.882;2023-09-19T12:05:16;20.50;99.90
32476;DHT22;18929;48.008;10.882;2023-09-19T12:07:47;19.90;99.90
32476;DHT22;18929;48.008;10.882;2023-09-19T12:10:14;19.80;99.90
32476;DHT22;18929;48.008;10.882;2023-09-19T12:12:48;19.50;99.90
32476;DHT22;18929;48.008;10.882;2023-09-19T12:15:17;19.50;99.90
32476;DHT22;18929;48.008;10.882;2023-09-19T12:17:50;19.60;99.90
32476;DHT22;18929;48.008;10.882;2023-09-19T12:20:19;19.60;99.90
32476;DHT22;18929;48.008;10.882;2023-09-19T12:22:46;19.90;99.90
32476;DHT22;18929;48.008;10.882;2023-09-19T12:25:15;20.00;99.90
32476;DHT22;18929;48.008;10.882;2023-09-19T12:27:48;20.00;99.90
32476;DHT22;18929;48.008;10.882;2023-09-19T12:30:18;20.10;99.90
32476;DHT22;18929;48.008;10.882;2023-09-19T12:32:46;20.10;99.90
32476;DHT22;18929;48.008;10.882;2023-09-19T12:35:26;20.00;99.90
32476;DHT22;18929;48.008;10.882;2023-09-19T12:37:54;20.20;99.90
32476;DHT22;18929;48.008;10.882;2023-09-19T12:40:21;20.10;99.90
32476;DHT22;18929;48.008;10.882;2023-09-19T12:42:49;20.40;99.90
32476;DHT22;18929;48.008;10.882;2023-09-19T12:45:17;20.60;99.90
32476;DHT22;18929;48.008;10.882;2023-09-19T12:50:25;20.70;99.90
32476;DHT22;18929;48.008;10.882;2023-09-19T12:52:56;20.60;99.90
32476;DHT22;18929;48.008;10.882;2023-09-19T12:55:26;20.60;99.90
32476;DHT22;18929;48.008;10.882;2023-09-19T12:58:02;20.30;99.90
32476;DHT22;18929;48.008;10.882;2023-09-19T13:00:31;20.50;99.90
32476;DHT22;18929;48.008;10.882;2023-09-19T13:03:11;20.30;99.90
32476;DHT22;18929;48.008;10.882;2023-09-19T13:05:48;20.40;99.90
32476;DHT22;18929;48.008;10.882;2023-09-19T13:08:19;20.60;99.90
32476;DHT22;18929;48.008;10.882;2023-09-19T13:11:02;20.50;99.90
32476;DHT22;18929;48.008;10.882;2023-09-19T13:13:33;20.50;99.90
32476;DHT22;18929;48.008;10.882;2023-09-19T13:16:01;20.70;99.90
32476;DHT22;18929;48.008;10.882;2023-09-19T13:18:48;20.80;99.90
32476;DHT22;18929;48.008;10.882;2023-09-19T13:21:27;20.90;99.90
32476;DHT22;18929;48.008;10.882;2023-09-19T13:23:54;20.90;99.90
32476;DHT22;18929;48.008;10.882;2023-09-19T13:26:24;22.00;99.90
32476;DHT22;18929;48.008;10.882;2023-09-19T13:28:53;22.80;99.90
32476;DHT22;18929;48.008;10.882;2023-09-19T13:31:20;22.90;99.90
32476;DHT22;18929;48.008;10.882;2023-09-19T13:33:47;22.70;99.90
32476;DHT22;18929;48.008;10.882;2023-09-19T13:36:14;22.80;99.90
32476;DHT22;18929;48.008;10.882;2023-09-19T13:38:41;23.10;99.90
32476;DHT22;18929;48.008;10.882;2023-09-19T13:41:09;23.20;99.90
32476;DHT22;18929;48.008;10.882;2023-09-19T13:43:36;23.10;99.90
32476;DHT22;18929;48.008;10.882;2023-09-19T13:46:05;23.30;99.90
32476;DHT22;18929;48.008;10.882;2023-09-19T13:48:37;22.80;99.90
32476;DHT22;18929;48.008;10.882;2023-09-19T13:51:04;23.00;99.90
32476;DHT22;18929;48.008;10.882;2023-09-19T13:53:31;23.30;99.90
32476;DHT22;18929;48.008;10.882;2023-09-19T13:55:59;23.20;99.90
32476;DHT22;18929;48.008;10.882;2023-09-19T13:58:33;23.20;99.90
32476;DHT22;18929;48.008;10.882;2023-09-19T14:01:00;23.20;99.90
32476;DHT22;18929;48.008;10.882;2023-09-19T14:03:29;23.30;99.90
32476;DHT22;18929;48.008;10.882;2023-09-19T14:05:57;23.30;99.90
32476;DHT22;18929;48.008;10.882;2023-09-19T14:08:25;23.00;99.90
32476;DHT22;18929;48.008;10.882;2023-09-19T14:10:54;22.90;99.90
32476;DHT22;18929;48.008;10.882;2023-09-19T14:13:28;23.00;99.90
32476;DHT22;18929;48.008;10.882;2023-09-19T14:15:55;23.10;99.90
32476;DHT22;18929;48.008;10.882;2023-09-19T14:18:22;22.80;99.90
32476;DHT22;18929;48.008;10.882;2023-09-19T14:20:52;23.00;99.90
32476;DHT22;18929;48.008;10.882;2023-09-19T14:23:20;22.20;99.90
32476;DHT22;18929;48.008;10.882;2023-09-19T14:25:50;22.80;99.90
32476;DHT22;18929;48.008;10.882;2023-09-19T14:28:17;23.20;99.90
32476;DHT22;18929;48.008;10.882;2023-09-19T14:30:47;22.40;99.90
32476;DHT22;18929;48.008;10.882;2023-09-19T14:36:00;23.00;99.90
32476;DHT22;18929;48.008;10.882;2023-09-19T14:38:28;23.50;99.90
32476;DHT22;18929;48.008;10.882;2023-09-19T14:40:59;23.50;99.90
32476;DHT22;18929;48.008;10.882;2023-09-19T14:43:26;23.50;99.90
32476;DHT22;18929;48.008;10.882;2023-09-19T14:45:54;23.20;99.90
32476;DHT22;18929;48.008;10.882;2023-09-19T14:48:25;23.10;99.90
32476;DHT22;18929;48.008;10.882;2023-09-19T14:50:54;23.40;99.90
32476;DHT22;18929;48.008;10.882;2023-09-19T14:53:25;23.10;99.90
32476;DHT22;18929;48.008;10.882;2023-09-19T14:55:53;23.40;99.90
32476;DHT22;18929;48.008;10.882;2023-09-19T14:58:27;23.10;99.90
32476;DHT22;18929;48.008;10.882;2023-09-19T15:01:01;23.20;99.90
32476;DHT22;18929;48.008;10.882;2023-09-19T15:03:29;23.20;99.90
32476;DHT22;18929;48.008;10.882;2023-09-19T15:05:58;23.30;99.90
32476;DHT22;18929;48.008;10.882;2023-09-19T15:11:01;22.50;99.90
32476;DHT22;18929;48.008;10.882;2023-09-19T15:13:29;22.70;99.90
32476;DHT22;18929;48.008;10.882;2023-09-19T15:15:58;23.20;99.90
32476;DHT22;18929;48.008;10.882;2023-09-19T15:18:25;23.00;99.90
32476;DHT22;18929;48.008;10.882;2023-09-19T15:20:52;22.80;99.90
32476;DHT22;18929;48.008;10.882;2023-09-19T15:23:20;23.20;99.90
32476;DHT22;18929;48.008;10.882;2023-09-19T15:25:50;23.60;99.90
32476;DHT22;18929;48.008;10.882;2023-09-19T15:28:20;23.60;99.90
32476;DHT22;18929;48.008;10.882;2023-09-19T15:33:37;23.70;99.90
32476;DHT22;18929;48.008;10.882;2023-09-19T15:36:06;23.70;99.90
32476;DHT22;18929;48.008;10.882;2023-09-19T15:38:55;23.80;99.90
32476;DHT22;18929;48.008;10.882;2023-09-19T15:41:25;23.50;99.90
32476;DHT22;18929;48.008;10.882;2023-09-19T15:43:55;23.40;99.90
32476;DHT22;18929;48.008;10.882;2023-09-19T15:46:27;23.30;99.90
32476;DHT22;18929;48.008;10.882;2023-09-19T15:48:55;23.20;99.90
32476;DHT22;18929;48.008;10.882;2023-09-19T15:51:22;23.20;99.90
32476;DHT22;18929;48.008;10.882;2023-09-19T15:53:49;22.50;99.90
32476;DHT22;18929;48.008;10.882;2023-09-19T15:56:20;22.90;99.90
32476;DHT22;18929;48.008;10.882;2023-09-19T15:58:51;22.90;99.90
32476;DHT22;18929;48.008;10.882;2023-09-19T16:01:20;23.20;99.90
32476;DHT22;18929;48.008;10.882;2023-09-19T16:03:48;23.60;99.90
32476;DHT22;18929;48.008;10.882;2023-09-19T16:06:16;23.90;99.90